sensor_id;sensor_type;location;lat;lon;timestamp;P1;durP1;ratioP1;P2;durP2;ratioP2
66751;SDS011;53663;42.676;23.238;2023-05-10T00:01:47;6.15;;;4.45;;
66751;SDS011;53663;42.676;23.238;2023-05-10T00:04:13;5.93;;;4.68;;
66751;SDS011;53663;42.676;23.238;2023-05-10T00:06:38;7.93;;;5.40;;
66751;SDS011;53663;42.676;23.238;2023-05-10T00:09:04;6.53;;;5.03;;
66751;SDS011;53663;42.676;23.238;2023-05-10T00:11:29;9.88;;;4.40;;
66751;SDS011;53663;42.676;23.238;2023-05-10T00:13:55;9.68;;;5.47;;
66751;SDS011;53663;42.676;23.238;2023-05-10T00:16:20;8.15;;;5.20;;
66751;SDS011;53663;42.676;23.238;2023-05-10T00:18:46;7.72;;;5.32;;
66751;SDS011;53663;42.676;23.238;2023-05-10T00:21:11;7.88;;;5.28;;
66751;SDS011;53663;42.676;23.238;2023-05-10T00:23:37;9.93;;;6.20;;
66751;SDS011;53663;42.676;23.238;2023-05-10T00:26:02;10.38;;;6.75;;
66751;SDS011;53663;42.676;23.238;2023-05-10T00:28:28;9.20;;;6.63;;
66751;SDS011;53663;42.676;23.238;2023-05-10T00:30:55;7.57;;;5.78;;
66751;SDS011;53663;42.676;23.238;2023-05-10T00:33:21;9.68;;;6.22;;
66751;SDS011;53663;42.676;23.238;2023-05-10T00:35:47;7.57;;;5.15;;
66751;SDS011;53663;42.676;23.238;2023-05-10T00:38:12;7.28;;;5.80;;
66751;SDS011;53663;42.676;23.238;2023-05-10T00:40:38;6.55;;;5.25;;
66751;SDS011;53663;42.676;23.238;2023-05-10T00:43:08;8.10;;;6.03;;
66751;SDS011;53663;42.676;23.238;2023-05-10T00:45:34;7.18;;;5.93;;
66751;SDS011;53663;42.676;23.238;2023-05-10T00:48:01;7.50;;;6.00;;
66751;SDS011;53663;42.676;23.238;2023-05-10T00:50:29;7.63;;;6.03;;
66751;SDS011;53663;42.676;23.238;2023-05-10T00:52:56;6.32;;;4.40;;
66751;SDS011;53663;42.676;23.238;2023-05-10T00:55:24;7.88;;;6.15;;
66751;SDS011;53663;42.676;23.238;2023-05-10T00:57:49;7.13;;;5.05;;
66751;SDS011;53663;42.676;23.238;2023-05-10T01:00:15;7.32;;;5.82;;
66751;SDS011;53663;42.676;23.238;2023-05-10T01:02:44;9.15;;;5.45;;
66751;SDS011;53663;42.676;23.238;2023-05-10T01:05:11;7.97;;;6.47;;
66751;SDS011;53663;42.676;23.238;2023-05-10T01:07:37;7.72;;;6.18;;
66751;SDS011;53663;42.676;23.238;2023-05-10T01:10:02;7.45;;;5.97;;
66751;SDS011;53663;42.676;23.238;2023-05-10T01:12:28;7.28;;;5.70;;
66751;SDS011;53663;42.676;23.238;2023-05-10T01:14:53;6.93;;;6.22;;
66751;SDS011;53663;42.676;23.238;2023-05-10T01:17:20;9.80;;;6.72;;
66751;SDS011;53663;42.676;23.238;2023-05-10T01:19:46;7.10;;;3.90;;
66751;SDS011;53663;42.676;23.238;2023-05-10T01:32:52;8.68;;;6.22;;
66751;SDS011;53663;42.676;23.238;2023-05-10T01:35:31;8.57;;;6.32;;
66751;SDS011;53663;42.676;23.238;2023-05-10T01:38:03;7.93;;;6.25;;
66751;SDS011;53663;42.676;23.238;2023-05-10T01:40:40;7.45;;;5.22;;
66751;SDS011;53663;42.676;23.238;2023-05-10T01:43:26;7.25;;;5.65;;
66751;SDS011;53663;42.676;23.238;2023-05-10T01:48:30;8.57;;;5.07;;
66751;SDS011;53663;42.676;23.238;2023-05-10T01:50:59;5.10;;;4.20;;
66751;SDS011;53663;42.676;23.238;2023-05-10T01:53:25;8.50;;;5.38;;
66751;SDS011;53663;42.676;23.238;2023-05-10T01:55:52;4.60;;;3.13;;
66751;SDS011;53663;42.676;23.238;2023-05-10T01:58:21;5.63;;;3.95;;
66751;SDS011;53663;42.676;23.238;2023-05-10T02:00:52;4.90;;;3.90;;
66751;SDS011;53663;42.676;23.238;2023-05-10T02:03:20;6.20;;;3.85;;
66751;SDS011;53663;42.676;23.238;2023-05-10T02:05:48;4.50;;;3.60;;
66751;SDS011;53663;42.676;23.238;2023-05-10T02:08:15;5.50;;;4.43;;
66751;SDS011;53663;42.676;23.238;2023-05-10T02:10:43;6.57;;;4.03;;
66751;SDS011;53663;42.676;23.238;2023-05-10T02:13:10;5.72;;;4.00;;
66751;SDS011;53663;42.676;23.238;2023-05-10T02:15:36;5.75;;;3.80;;
66751;SDS011;53663;42.676;23.238;2023-05-10T02:18:04;4.20;;;2.90;;
66751;SDS011;53663;42.676;23.238;2023-05-10T02:20:31;4.78;;;3.03;;
66751;SDS011;53663;42.676;23.238;2023-05-10T02:22:57;4.53;;;3.28;;
66751;SDS011;53663;42.676;23.238;2023-05-10T02:25:24;4.70;;;3.72;;
66751;SDS011;53663;42.676;23.238;2023-05-10T02:27:51;5.55;;;3.80;;
66751;SDS011;53663;42.676;23.238;2023-05-10T02:30:21;5.55;;;3.90;;
66751;SDS011;53663;42.676;23.238;2023-05-10T02:32:49;4.95;;;3.42;;
66751;SDS011;53663;42.676;23.238;2023-05-10T02:35:16;4.60;;;3.50;;
66751;SDS011;53663;42.676;23.238;2023-05-10T02:37:41;7.43;;;3.78;;
66751;SDS011;53663;42.676;23.238;2023-05-10T02:40:09;3.97;;;2.83;;
66751;SDS011;53663;42.676;23.238;2023-05-10T02:42:37;6.97;;;3.75;;
66751;SDS011;53663;42.676;23.238;2023-05-10T02:45:22;6.40;;;4.22;;
66751;SDS011;53663;42.676;23.238;2023-05-10T02:47:51;10.68;;;3.88;;
66751;SDS011;53663;42.676;23.238;2023-05-10T02:50:19;6.68;;;3.22;;
66751;SDS011;53663;42.676;23.238;2023-05-10T02:52:47;4.53;;;3.53;;
66751;SDS011;53663;42.676;23.238;2023-05-10T02:55:16;4.20;;;3.13;;
66751;SDS011;53663;42.676;23.238;2023-05-10T02:57:48;5.53;;;3.47;;
66751;SDS011;53663;42.676;23.238;2023-05-10T03:00:19;6.65;;;4.20;;
66751;SDS011;53663;42.676;23.238;2023-05-10T03:02:44;6.30;;;3.90;;
66751;SDS011;53663;42.676;23.238;2023-05-10T03:05:10;11.75;;;4.30;;
66751;SDS011;53663;42.676;23.238;2023-05-10T03:07:35;7.90;;;4.00;;
66751;SDS011;53663;42.676;23.238;2023-05-10T03:10:01;6.32;;;4.45;;
66751;SDS011;53663;42.676;23.238;2023-05-10T03:12:41;8.23;;;3.13;;
66751;SDS011;53663;42.676;23.238;2023-05-10T03:20:48;6.00;;;4.55;;
66751;SDS011;53663;42.676;23.238;2023-05-10T03:23:34;6.72;;;4.93;;
66751;SDS011;53663;42.676;23.238;2023-05-10T03:26:01;8.60;;;4.18;;
66751;SDS011;53663;42.676;23.238;2023-05-10T03:28:29;7.82;;;4.57;;
66751;SDS011;53663;42.676;23.238;2023-05-10T03:30:56;8.93;;;4.57;;
66751;SDS011;53663;42.676;23.238;2023-05-10T03:33:22;5.88;;;3.60;;
66751;SDS011;53663;42.676;23.238;2023-05-10T03:35:48;6.22;;;3.97;;
66751;SDS011;53663;42.676;23.238;2023-05-10T03:38:14;7.25;;;4.20;;
66751;SDS011;53663;42.676;23.238;2023-05-10T03:40:40;6.22;;;4.38;;
66751;SDS011;53663;42.676;23.238;2023-05-10T03:43:06;5.53;;;4.10;;
66751;SDS011;53663;42.676;23.238;2023-05-10T03:45:32;7.38;;;4.63;;
66751;SDS011;53663;42.676;23.238;2023-05-10T03:47:58;9.50;;;4.63;;
66751;SDS011;53663;42.676;23.238;2023-05-10T03:50:23;6.00;;;4.38;;
66751;SDS011;53663;42.676;23.238;2023-05-10T03:52:49;5.15;;;2.85;;
66751;SDS011;53663;42.676;23.238;2023-05-10T03:55:15;6.70;;;4.20;;
66751;SDS011;53663;42.676;23.238;2023-05-10T03:57:41;7.88;;;4.10;;
66751;SDS011;53663;42.676;23.238;2023-05-10T04:00:07;6.55;;;4.43;;
66751;SDS011;53663;42.676;23.238;2023-05-10T04:02:39;8.98;;;4.78;;
66751;SDS011;53663;42.676;23.238;2023-05-10T04:05:08;8.10;;;4.78;;
66751;SDS011;53663;42.676;23.238;2023-05-10T04:07:34;7.22;;;4.10;;
66751;SDS011;53663;42.676;23.238;2023-05-10T04:10:00;3.35;;;2.58;;
66751;SDS011;53663;42.676;23.238;2023-05-10T04:12:25;11.60;;;3.90;;
66751;SDS011;53663;42.676;23.238;2023-05-10T04:14:51;5.60;;;3.42;;
66751;SDS011;53663;42.676;23.238;2023-05-10T04:17:16;7.88;;;3.17;;
66751;SDS011;53663;42.676;23.238;2023-05-10T04:19:42;6.63;;;4.18;;
66751;SDS011;53663;42.676;23.238;2023-05-10T04:22:07;6.78;;;4.40;;
66751;SDS011;53663;42.676;23.238;2023-05-10T04:24:33;11.95;;;4.38;;
66751;SDS011;53663;42.676;23.238;2023-05-10T04:26:59;4.82;;;3.20;;
66751;SDS011;53663;42.676;23.238;2023-05-10T04:29:24;5.22;;;2.78;;
66751;SDS011;53663;42.676;23.238;2023-05-10T04:31:50;3.60;;;2.47;;
66751;SDS011;53663;42.676;23.238;2023-05-10T04:34:16;8.35;;;3.67;;
66751;SDS011;53663;42.676;23.238;2023-05-10T04:36:41;9.02;;;4.35;;
66751;SDS011;53663;42.676;23.238;2023-05-10T04:39:06;5.88;;;3.67;;
66751;SDS011;53663;42.676;23.238;2023-05-10T04:41:32;7.55;;;4.20;;
66751;SDS011;53663;42.676;23.238;2023-05-10T04:43:57;6.05;;;4.35;;
66751;SDS011;53663;42.676;23.238;2023-05-10T04:46:23;4.57;;;3.20;;
66751;SDS011;53663;42.676;23.238;2023-05-10T04:48:48;5.25;;;3.58;;
66751;SDS011;53663;42.676;23.238;2023-05-10T04:51:14;7.00;;;4.25;;
66751;SDS011;53663;42.676;23.238;2023-05-10T04:53:40;8.95;;;3.88;;
66751;SDS011;53663;42.676;23.238;2023-05-10T04:56:05;6.60;;;4.68;;
66751;SDS011;53663;42.676;23.238;2023-05-10T04:58:32;6.40;;;4.00;;
66751;SDS011;53663;42.676;23.238;2023-05-10T05:00:59;6.25;;;4.40;;
66751;SDS011;53663;42.676;23.238;2023-05-10T05:03:30;6.13;;;4.07;;
66751;SDS011;53663;42.676;23.238;2023-05-10T05:05:55;7.50;;;4.40;;
66751;SDS011;53663;42.676;23.238;2023-05-10T05:08:21;6.43;;;3.35;;
66751;SDS011;53663;42.676;23.238;2023-05-10T05:10:47;7.60;;;4.25;;
66751;SDS011;53663;42.676;23.238;2023-05-10T05:13:15;9.55;;;4.60;;
66751;SDS011;53663;42.676;23.238;2023-05-10T05:15:40;5.93;;;4.15;;
66751;SDS011;53663;42.676;23.238;2023-05-10T05:18:06;7.28;;;4.40;;
66751;SDS011;53663;42.676;23.238;2023-05-10T05:20:32;4.60;;;3.40;;
66751;SDS011;53663;42.676;23.238;2023-05-10T05:22:59;3.95;;;3.00;;
66751;SDS011;53663;42.676;23.238;2023-05-10T05:25:24;6.88;;;4.22;;
66751;SDS011;53663;42.676;23.238;2023-05-10T05:27:50;7.45;;;4.88;;
66751;SDS011;53663;42.676;23.238;2023-05-10T05:30:15;9.13;;;4.50;;
66751;SDS011;53663;42.676;23.238;2023-05-10T05:32:41;6.18;;;4.55;;
66751;SDS011;53663;42.676;23.238;2023-05-10T05:35:06;8.02;;;4.50;;
66751;SDS011;53663;42.676;23.238;2023-05-10T05:37:32;6.80;;;4.25;;
66751;SDS011;53663;42.676;23.238;2023-05-10T05:39:58;6.30;;;4.93;;
66751;SDS011;53663;42.676;23.238;2023-05-10T05:42:23;7.22;;;4.00;;
66751;SDS011;53663;42.676;23.238;2023-05-10T05:44:49;9.38;;;5.57;;
66751;SDS011;53663;42.676;23.238;2023-05-10T05:47:14;7.43;;;5.15;;
66751;SDS011;53663;42.676;23.238;2023-05-10T05:49:40;14.63;;;5.95;;
66751;SDS011;53663;42.676;23.238;2023-05-10T05:52:05;6.07;;;4.40;;
66751;SDS011;53663;42.676;23.238;2023-05-10T05:54:31;8.57;;;5.75;;
66751;SDS011;53663;42.676;23.238;2023-05-10T05:56:57;10.13;;;5.95;;
66751;SDS011;53663;42.676;23.238;2023-05-10T05:59:23;7.88;;;5.57;;
66751;SDS011;53663;42.676;23.238;2023-05-10T06:01:49;10.43;;;6.13;;
66751;SDS011;53663;42.676;23.238;2023-05-10T06:04:15;8.20;;;6.00;;
66751;SDS011;53663;42.676;23.238;2023-05-10T06:06:41;11.05;;;6.00;;
66751;SDS011;53663;42.676;23.238;2023-05-10T06:09:07;9.52;;;6.00;;
66751;SDS011;53663;42.676;23.238;2023-05-10T06:11:33;7.72;;;5.53;;
66751;SDS011;53663;42.676;23.238;2023-05-10T06:13:59;9.45;;;6.78;;
66751;SDS011;53663;42.676;23.238;2023-05-10T06:16:25;9.75;;;5.53;;
66751;SDS011;53663;42.676;23.238;2023-05-10T06:18:51;9.82;;;7.28;;
66751;SDS011;53663;42.676;23.238;2023-05-10T06:21:16;10.63;;;7.70;;
66751;SDS011;53663;42.676;23.238;2023-05-10T06:23:42;12.73;;;7.28;;
66751;SDS011;53663;42.676;23.238;2023-05-10T06:26:07;16.15;;;8.80;;
66751;SDS011;53663;42.676;23.238;2023-05-10T06:28:33;11.02;;;7.60;;
66751;SDS011;53663;42.676;23.238;2023-05-10T06:30:59;12.90;;;7.85;;
66751;SDS011;53663;42.676;23.238;2023-05-10T06:33:25;11.25;;;7.53;;
66751;SDS011;53663;42.676;23.238;2023-05-10T06:35:51;14.70;;;8.48;;
66751;SDS011;53663;42.676;23.238;2023-05-10T06:38:16;10.32;;;5.90;;
66751;SDS011;53663;42.676;23.238;2023-05-10T06:40:42;11.20;;;6.93;;
66751;SDS011;53663;42.676;23.238;2023-05-10T06:43:08;13.85;;;7.35;;
66751;SDS011;53663;42.676;23.238;2023-05-10T06:45:34;12.18;;;7.15;;
66751;SDS011;53663;42.676;23.238;2023-05-10T06:47:59;12.60;;;7.18;;
66751;SDS011;53663;42.676;23.238;2023-05-10T06:50:25;13.20;;;6.78;;
66751;SDS011;53663;42.676;23.238;2023-05-10T06:52:50;9.57;;;6.43;;
66751;SDS011;53663;42.676;23.238;2023-05-10T06:55:16;10.20;;;7.45;;
66751;SDS011;53663;42.676;23.238;2023-05-10T06:57:42;8.10;;;6.10;;
66751;SDS011;53663;42.676;23.238;2023-05-10T07:00:07;8.52;;;4.78;;
66751;SDS011;53663;42.676;23.238;2023-05-10T07:02:34;10.52;;;6.40;;
66751;SDS011;53663;42.676;23.238;2023-05-10T07:05:00;9.52;;;6.38;;
66751;SDS011;53663;42.676;23.238;2023-05-10T07:07:27;8.27;;;4.95;;
66751;SDS011;53663;42.676;23.238;2023-05-10T07:09:53;8.70;;;5.88;;
66751;SDS011;53663;42.676;23.238;2023-05-10T07:12:18;12.38;;;7.05;;
66751;SDS011;53663;42.676;23.238;2023-05-10T07:14:44;10.40;;;6.60;;
66751;SDS011;53663;42.676;23.238;2023-05-10T07:17:09;11.35;;;7.05;;
66751;SDS011;53663;42.676;23.238;2023-05-10T07:19:35;12.55;;;7.07;;
66751;SDS011;53663;42.676;23.238;2023-05-10T07:22:01;24.02;;;10.35;;
66751;SDS011;53663;42.676;23.238;2023-05-10T07:24:26;15.23;;;8.65;;
66751;SDS011;53663;42.676;23.238;2023-05-10T07:26:52;10.27;;;6.47;;
66751;SDS011;53663;42.676;23.238;2023-05-10T07:29:17;10.60;;;7.68;;
66751;SDS011;53663;42.676;23.238;2023-05-10T07:31:43;10.07;;;5.47;;
66751;SDS011;53663;42.676;23.238;2023-05-10T07:34:08;10.23;;;7.25;;
66751;SDS011;53663;42.676;23.238;2023-05-10T07:36:34;10.73;;;7.10;;
66751;SDS011;53663;42.676;23.238;2023-05-10T07:39:00;9.23;;;6.43;;
66751;SDS011;53663;42.676;23.238;2023-05-10T07:41:26;9.00;;;5.75;;
66751;SDS011;53663;42.676;23.238;2023-05-10T07:43:52;10.77;;;6.85;;
66751;SDS011;53663;42.676;23.238;2023-05-10T07:46:17;11.65;;;7.63;;
66751;SDS011;53663;42.676;23.238;2023-05-10T07:48:45;11.20;;;7.45;;
66751;SDS011;53663;42.676;23.238;2023-05-10T07:51:10;9.07;;;5.75;;
66751;SDS011;53663;42.676;23.238;2023-05-10T07:53:36;9.95;;;7.15;;
66751;SDS011;53663;42.676;23.238;2023-05-10T07:56:19;13.63;;;6.47;;
66751;SDS011;53663;42.676;23.238;2023-05-10T07:58:45;15.27;;;6.78;;
66751;SDS011;53663;42.676;23.238;2023-05-10T08:01:10;16.25;;;8.27;;
66751;SDS011;53663;42.676;23.238;2023-05-10T08:03:36;17.65;;;7.72;;
66751;SDS011;53663;42.676;23.238;2023-05-10T08:06:01;20.10;;;9.82;;
66751;SDS011;53663;42.676;23.238;2023-05-10T08:08:27;14.55;;;8.75;;
66751;SDS011;53663;42.676;23.238;2023-05-10T08:10:52;8.88;;;5.47;;
66751;SDS011;53663;42.676;23.238;2023-05-10T08:13:18;12.90;;;7.53;;
66751;SDS011;53663;42.676;23.238;2023-05-10T08:15:43;13.95;;;6.80;;
66751;SDS011;53663;42.676;23.238;2023-05-10T08:18:09;14.43;;;8.73;;
66751;SDS011;53663;42.676;23.238;2023-05-10T08:20:34;13.85;;;5.93;;
66751;SDS011;53663;42.676;23.238;2023-05-10T08:23:00;8.60;;;5.85;;
66751;SDS011;53663;42.676;23.238;2023-05-10T08:25:25;10.85;;;5.93;;
66751;SDS011;53663;42.676;23.238;2023-05-10T08:27:51;8.73;;;6.28;;
66751;SDS011;53663;42.676;23.238;2023-05-10T08:30:16;7.40;;;4.95;;
66751;SDS011;53663;42.676;23.238;2023-05-10T08:32:42;11.65;;;7.38;;
66751;SDS011;53663;42.676;23.238;2023-05-10T08:35:08;9.65;;;6.85;;
66751;SDS011;53663;42.676;23.238;2023-05-10T08:37:33;8.60;;;6.03;;
66751;SDS011;53663;42.676;23.238;2023-05-10T08:39:59;8.57;;;5.90;;
66751;SDS011;53663;42.676;23.238;2023-05-10T08:42:25;8.73;;;6.72;;
66751;SDS011;53663;42.676;23.238;2023-05-10T08:44:53;11.38;;;6.20;;
66751;SDS011;53663;42.676;23.238;2023-05-10T08:47:20;11.60;;;7.15;;
66751;SDS011;53663;42.676;23.238;2023-05-10T08:49:47;11.90;;;7.43;;
66751;SDS011;53663;42.676;23.238;2023-05-10T08:52:16;13.00;;;7.20;;
66751;SDS011;53663;42.676;23.238;2023-05-10T08:54:42;7.45;;;4.53;;
66751;SDS011;53663;42.676;23.238;2023-05-10T08:57:09;10.43;;;6.15;;
66751;SDS011;53663;42.676;23.238;2023-05-10T08:59:35;15.32;;;6.88;;
66751;SDS011;53663;42.676;23.238;2023-05-10T09:02:04;10.25;;;6.70;;
66751;SDS011;53663;42.676;23.238;2023-05-10T09:04:30;9.35;;;5.78;;
66751;SDS011;53663;42.676;23.238;2023-05-10T09:06:56;11.20;;;7.50;;
66751;SDS011;53663;42.676;23.238;2023-05-10T09:09:22;11.00;;;7.32;;
66751;SDS011;53663;42.676;23.238;2023-05-10T09:11:50;9.10;;;6.43;;
66751;SDS011;53663;42.676;23.238;2023-05-10T09:14:16;10.90;;;5.35;;
66751;SDS011;53663;42.676;23.238;2023-05-10T09:16:43;8.73;;;6.03;;
66751;SDS011;53663;42.676;23.238;2023-05-10T09:19:09;10.57;;;6.72;;
66751;SDS011;53663;42.676;23.238;2023-05-10T09:21:35;8.90;;;6.20;;
66751;SDS011;53663;42.676;23.238;2023-05-10T09:24:07;10.00;;;6.60;;
66751;SDS011;53663;42.676;23.238;2023-05-10T09:26:34;10.23;;;5.90;;
66751;SDS011;53663;42.676;23.238;2023-05-10T09:29:01;8.45;;;6.55;;
66751;SDS011;53663;42.676;23.238;2023-05-10T09:34:19;15.88;;;6.60;;
66751;SDS011;53663;42.676;23.238;2023-05-10T09:39:18;9.10;;;5.57;;
66751;SDS011;53663;42.676;23.238;2023-05-10T09:41:44;17.13;;;6.38;;
66751;SDS011;53663;42.676;23.238;2023-05-10T09:44:10;4.55;;;3.72;;
66751;SDS011;53663;42.676;23.238;2023-05-10T09:46:35;8.40;;;6.20;;
66751;SDS011;53663;42.676;23.238;2023-05-10T09:49:01;8.98;;;6.45;;
66751;SDS011;53663;42.676;23.238;2023-05-10T09:51:27;13.13;;;6.03;;
66751;SDS011;53663;42.676;23.238;2023-05-10T09:54:09;6.85;;;4.53;;
66751;SDS011;53663;42.676;23.238;2023-05-10T09:56:38;8.35;;;6.25;;
66751;SDS011;53663;42.676;23.238;2023-05-10T09:59:06;8.63;;;6.45;;
66751;SDS011;53663;42.676;23.238;2023-05-10T10:01:33;7.97;;;5.60;;
66751;SDS011;53663;42.676;23.238;2023-05-10T10:04:02;9.18;;;5.10;;
66751;SDS011;53663;42.676;23.238;2023-05-10T10:06:29;6.50;;;4.57;;
66751;SDS011;53663;42.676;23.238;2023-05-10T10:08:55;7.20;;;5.22;;
66751;SDS011;53663;42.676;23.238;2023-05-10T10:11:21;10.73;;;6.72;;
66751;SDS011;53663;42.676;23.238;2023-05-10T10:13:48;10.55;;;6.10;;
66751;SDS011;53663;42.676;23.238;2023-05-10T10:16:14;10.45;;;6.05;;
66751;SDS011;53663;42.676;23.238;2023-05-10T10:18:40;10.30;;;5.72;;
66751;SDS011;53663;42.676;23.238;2023-05-10T10:21:07;12.68;;;5.97;;
66751;SDS011;53663;42.676;23.238;2023-05-10T10:23:35;8.63;;;5.80;;
66751;SDS011;53663;42.676;23.238;2023-05-10T10:26:02;16.98;;;6.20;;
66751;SDS011;53663;42.676;23.238;2023-05-10T10:31:32;7.40;;;4.68;;
66751;SDS011;53663;42.676;23.238;2023-05-10T10:34:06;18.02;;;5.53;;
66751;SDS011;53663;42.676;23.238;2023-05-10T10:36:42;9.55;;;6.03;;
66751;SDS011;53663;42.676;23.238;2023-05-10T10:39:10;9.18;;;5.97;;
66751;SDS011;53663;42.676;23.238;2023-05-10T10:41:37;12.85;;;6.68;;
66751;SDS011;53663;42.676;23.238;2023-05-10T10:54:56;11.43;;;5.03;;
66751;SDS011;53663;42.676;23.238;2023-05-10T10:57:43;12.52;;;6.93;;
66751;SDS011;53663;42.676;23.238;2023-05-10T11:05:39;9.80;;;4.97;;
66751;SDS011;53663;42.676;23.238;2023-05-10T11:15:54;6.95;;;5.70;;
66751;SDS011;53663;42.676;23.238;2023-05-10T11:18:29;12.82;;;5.30;;
66751;SDS011;53663;42.676;23.238;2023-05-10T11:21:01;12.40;;;5.72;;
66751;SDS011;53663;42.676;23.238;2023-05-10T11:23:55;11.40;;;5.68;;
66751;SDS011;53663;42.676;23.238;2023-05-10T11:26:22;10.32;;;5.93;;
66751;SDS011;53663;42.676;23.238;2023-05-10T11:28:52;8.75;;;5.88;;
66751;SDS011;53663;42.676;23.238;2023-05-10T11:31:20;12.38;;;4.97;;
66751;SDS011;53663;42.676;23.238;2023-05-10T11:36:16;11.68;;;4.53;;
66751;SDS011;53663;42.676;23.238;2023-05-10T11:38:43;12.60;;;5.85;;
66751;SDS011;53663;42.676;23.238;2023-05-10T11:41:09;14.05;;;5.68;;
66751;SDS011;53663;42.676;23.238;2023-05-10T11:43:36;13.25;;;6.72;;
66751;SDS011;53663;42.676;23.238;2023-05-10T11:46:04;6.38;;;3.67;;
66751;SDS011;53663;42.676;23.238;2023-05-10T11:48:31;5.30;;;3.78;;
66751;SDS011;53663;42.676;23.238;2023-05-10T11:50:56;6.55;;;5.03;;
66751;SDS011;53663;42.676;23.238;2023-05-10T11:53:24;12.20;;;4.50;;
66751;SDS011;53663;42.676;23.238;2023-05-10T11:55:52;9.48;;;5.57;;
66751;SDS011;53663;42.676;23.238;2023-05-10T11:58:18;6.25;;;4.18;;
66751;SDS011;53663;42.676;23.238;2023-05-10T12:00:44;12.52;;;6.88;;
66751;SDS011;53663;42.676;23.238;2023-05-10T12:03:10;7.25;;;3.83;;
66751;SDS011;53663;42.676;23.238;2023-05-10T12:05:36;9.35;;;6.22;;
66751;SDS011;53663;42.676;23.238;2023-05-10T12:08:12;8.80;;;5.45;;
66751;SDS011;53663;42.676;23.238;2023-05-10T12:10:41;12.52;;;6.10;;
66751;SDS011;53663;42.676;23.238;2023-05-10T12:13:13;18.58;;;6.50;;
66751;SDS011;53663;42.676;23.238;2023-05-10T12:15:40;9.65;;;6.00;;
66751;SDS011;53663;42.676;23.238;2023-05-10T12:18:08;10.80;;;4.00;;
66751;SDS011;53663;42.676;23.238;2023-05-10T12:20:35;8.73;;;4.97;;
66751;SDS011;53663;42.676;23.238;2023-05-10T12:23:01;10.05;;;6.50;;
66751;SDS011;53663;42.676;23.238;2023-05-10T12:25:29;10.70;;;6.35;;
66751;SDS011;53663;42.676;23.238;2023-05-10T12:27:57;8.82;;;6.15;;
66751;SDS011;53663;42.676;23.238;2023-05-10T12:30:27;17.88;;;6.75;;
66751;SDS011;53663;42.676;23.238;2023-05-10T12:32:59;7.20;;;4.95;;
66751;SDS011;53663;42.676;23.238;2023-05-10T12:35:32;9.52;;;5.10;;
66751;SDS011;53663;42.676;23.238;2023-05-10T12:38:00;12.07;;;6.68;;
66751;SDS011;53663;42.676;23.238;2023-05-10T12:40:25;11.48;;;7.00;;
66751;SDS011;53663;42.676;23.238;2023-05-10T12:42:51;9.80;;;6.65;;
66751;SDS011;53663;42.676;23.238;2023-05-10T12:45:17;8.63;;;6.28;;
66751;SDS011;53663;42.676;23.238;2023-05-10T12:47:43;11.55;;;7.05;;
66751;SDS011;53663;42.676;23.238;2023-05-10T12:50:09;10.25;;;5.95;;
66751;SDS011;53663;42.676;23.238;2023-05-10T12:52:35;7.43;;;5.25;;
66751;SDS011;53663;42.676;23.238;2023-05-10T12:55:01;10.70;;;7.18;;
66751;SDS011;53663;42.676;23.238;2023-05-10T12:57:28;12.63;;;7.82;;
66751;SDS011;53663;42.676;23.238;2023-05-10T12:59:54;15.88;;;7.00;;
66751;SDS011;53663;42.676;23.238;2023-05-10T13:02:19;10.57;;;6.82;;
66751;SDS011;53663;42.676;23.238;2023-05-10T13:04:46;18.35;;;7.90;;
66751;SDS011;53663;42.676;23.238;2023-05-10T13:07:12;12.75;;;7.70;;
66751;SDS011;53663;42.676;23.238;2023-05-10T13:09:38;11.43;;;6.07;;
66751;SDS011;53663;42.676;23.238;2023-05-10T13:12:03;9.80;;;6.93;;
66751;SDS011;53663;42.676;23.238;2023-05-10T13:14:29;10.68;;;7.35;;
66751;SDS011;53663;42.676;23.238;2023-05-10T13:16:55;13.40;;;6.80;;
66751;SDS011;53663;42.676;23.238;2023-05-10T13:19:20;11.27;;;7.70;;
66751;SDS011;53663;42.676;23.238;2023-05-10T13:21:46;13.30;;;8.05;;
66751;SDS011;53663;42.676;23.238;2023-05-10T13:24:12;11.07;;;7.72;;
66751;SDS011;53663;42.676;23.238;2023-05-10T13:26:40;9.35;;;5.93;;
66751;SDS011;53663;42.676;23.238;2023-05-10T13:29:06;7.55;;;5.10;;
66751;SDS011;53663;42.676;23.238;2023-05-10T13:31:33;8.82;;;6.13;;
66751;SDS011;53663;42.676;23.238;2023-05-10T13:33:58;7.72;;;4.78;;
66751;SDS011;53663;42.676;23.238;2023-05-10T13:36:24;13.45;;;7.25;;
66751;SDS011;53663;42.676;23.238;2023-05-10T13:38:50;13.60;;;6.60;;
66751;SDS011;53663;42.676;23.238;2023-05-10T13:41:15;9.30;;;6.10;;
66751;SDS011;53663;42.676;23.238;2023-05-10T13:43:41;9.82;;;6.40;;
66751;SDS011;53663;42.676;23.238;2023-05-10T13:46:06;13.13;;;8.05;;
66751;SDS011;53663;42.676;23.238;2023-05-10T13:48:32;12.90;;;6.53;;
66751;SDS011;53663;42.676;23.238;2023-05-10T13:50:57;8.35;;;6.20;;
66751;SDS011;53663;42.676;23.238;2023-05-10T13:53:23;12.50;;;6.82;;
66751;SDS011;53663;42.676;23.238;2023-05-10T13:55:48;8.73;;;5.55;;
66751;SDS011;53663;42.676;23.238;2023-05-10T13:58:14;9.65;;;6.45;;
66751;SDS011;53663;42.676;23.238;2023-05-10T14:00:39;10.77;;;5.93;;
66751;SDS011;53663;42.676;23.238;2023-05-10T14:03:05;8.02;;;5.38;;
66751;SDS011;53663;42.676;23.238;2023-05-10T14:05:31;11.05;;;6.25;;
66751;SDS011;53663;42.676;23.238;2023-05-10T14:07:57;10.60;;;7.22;;
66751;SDS011;53663;42.676;23.238;2023-05-10T14:10:23;9.68;;;5.60;;
66751;SDS011;53663;42.676;23.238;2023-05-10T14:12:49;10.52;;;6.35;;
66751;SDS011;53663;42.676;23.238;2023-05-10T14:15:15;11.27;;;6.25;;
66751;SDS011;53663;42.676;23.238;2023-05-10T14:17:40;13.75;;;7.43;;
66751;SDS011;53663;42.676;23.238;2023-05-10T14:20:06;12.32;;;6.68;;
66751;SDS011;53663;42.676;23.238;2023-05-10T14:22:32;13.68;;;7.00;;
66751;SDS011;53663;42.676;23.238;2023-05-10T14:24:58;13.35;;;7.78;;
66751;SDS011;53663;42.676;23.238;2023-05-10T14:27:23;9.85;;;6.72;;
66751;SDS011;53663;42.676;23.238;2023-05-10T14:29:49;10.40;;;5.65;;
66751;SDS011;53663;42.676;23.238;2023-05-10T14:32:15;10.55;;;6.47;;
66751;SDS011;53663;42.676;23.238;2023-05-10T14:34:40;11.68;;;6.88;;
66751;SDS011;53663;42.676;23.238;2023-05-10T14:37:06;10.68;;;5.95;;
66751;SDS011;53663;42.676;23.238;2023-05-10T14:39:31;9.02;;;5.55;;
66751;SDS011;53663;42.676;23.238;2023-05-10T14:41:58;15.27;;;7.13;;
66751;SDS011;53663;42.676;23.238;2023-05-10T14:44:23;7.53;;;5.13;;
66751;SDS011;53663;42.676;23.238;2023-05-10T14:46:49;12.07;;;5.93;;
66751;SDS011;53663;42.676;23.238;2023-05-10T14:49:14;10.13;;;6.25;;
66751;SDS011;53663;42.676;23.238;2023-05-10T14:51:40;9.57;;;5.60;;
66751;SDS011;53663;42.676;23.238;2023-05-10T14:54:06;10.10;;;6.55;;
66751;SDS011;53663;42.676;23.238;2023-05-10T14:56:31;8.13;;;4.55;;
66751;SDS011;53663;42.676;23.238;2023-05-10T14:58:57;11.90;;;6.78;;
66751;SDS011;53663;42.676;23.238;2023-05-10T15:01:22;11.07;;;6.82;;
66751;SDS011;53663;42.676;23.238;2023-05-10T15:03:48;10.88;;;6.03;;
66751;SDS011;53663;42.676;23.238;2023-05-10T15:06:14;16.15;;;8.25;;
66751;SDS011;53663;42.676;23.238;2023-05-10T15:08:43;9.48;;;6.80;;
66751;SDS011;53663;42.676;23.238;2023-05-10T15:11:08;10.02;;;5.63;;
66751;SDS011;53663;42.676;23.238;2023-05-10T15:13:34;8.35;;;5.35;;
66751;SDS011;53663;42.676;23.238;2023-05-10T15:16:00;8.82;;;5.55;;
66751;SDS011;53663;42.676;23.238;2023-05-10T15:18:26;8.02;;;5.72;;
66751;SDS011;53663;42.676;23.238;2023-05-10T15:20:51;12.20;;;7.05;;